Terminal Aerodrome Forecast
Issued by NWS

Home | Current Version | Previous Version | Text Only | Print | Product List | Glossary On
Versions: 1 2 3 4 5 6 7 8 9 10 11 12 13 14 15 16 17 18 19 20 21 22 23 24 25 26 27 28 29
000
FTUS46 KSGX 261400 AAB
TAFSAN
TAF AMD
KSAN 261415Z 2614/2718 VRB04KT 5SM HZ OVC008
     FM261600 20005KT P6SM SCT009 SCT150
     FM261900 24008KT P6SM SCT150
     FM270100 26005KT P6SM SCT150
     FM270600 VRB04KT P6SM BKN010
     FM271600 VRB04KT P6SM SCT150=

USA.gov is the U.S. government's official web portal to all federal, state and local government web resources and services.